createdAt,value
2018-01-12T00:01:11.753Z,117.20
2018-01-12T00:03:39.225Z,107.30
2018-01-12T00:06:07.474Z,97.30
2018-01-12T00:08:34.965Z,100.10
2018-01-12T00:11:03.201Z,104.60
2018-01-12T00:13:30.687Z,104.00
2018-01-12T00:15:58.928Z,108.10
2018-01-12T00:18:26.408Z,96.70
2018-01-12T00:20:53.876Z,99.83
2018-01-12T00:23:22.125Z,105.37
2018-01-12T00:25:49.595Z,99.93
2018-01-12T00:28:17.424Z,101.90
2018-01-12T00:30:44.896Z,97.33
2018-01-12T00:33:12.373Z,100.80
2018-01-12T00:35:39.857Z,95.87
2018-01-12T00:38:08.104Z,99.93
2018-01-12T00:40:35.585Z,92.87
2018-01-12T00:43:03.050Z,93.87
2018-01-12T00:45:31.489Z,96.67
2018-01-12T00:47:58.960Z,102.50
2018-01-12T00:50:26.440Z,100.10
2018-01-12T00:52:54.676Z,104.67
2018-01-12T00:55:22.148Z,103.27
2018-01-12T00:57:49.632Z,95.60
2018-01-12T01:00:17.105Z,92.23
2018-01-12T01:02:45.352Z,101.83
2018-01-12T01:05:12.821Z,103.63
2018-01-12T01:07:40.305Z,103.73
2018-01-12T01:10:08.553Z,106.80
2018-01-12T01:12:36.037Z,106.00
2018-01-12T01:15:04.276Z,103.40
2018-01-12T01:17:31.761Z,106.77
2018-01-12T01:19:59.997Z,100.07
2018-01-12T01:22:27.485Z,111.90
2018-01-12T01:24:54.961Z,108.87
2018-01-12T01:27:23.201Z,102.33
2018-01-12T01:29:50.685Z,94.97
2018-01-12T01:32:18.921Z,88.77
2018-01-12T01:34:46.397Z,93.80
2018-01-12T01:37:13.862Z,89.73
2018-01-12T01:39:41.345Z,96.00
2018-01-12T01:42:09.589Z,89.33
2018-01-12T01:44:37.076Z,91.50
2018-01-12T01:47:05.312Z,94.53
2018-01-12T01:49:32.808Z,98.73
2018-01-12T01:52:01.052Z,98.77
2018-01-12T01:54:28.522Z,90.87
2018-01-12T01:56:56.001Z,90.83
2018-01-12T01:59:24.242Z,92.60
2018-01-12T02:01:51.717Z,84.77
2018-01-12T02:04:19.192Z,91.90
2018-01-12T02:06:47.432Z,92.60
2018-01-12T02:09:14.908Z,88.83
2018-01-12T02:11:42.381Z,91.83
2018-01-12T02:14:10.632Z,94.17
2018-01-12T02:16:38.113Z,87.07
2018-01-12T02:19:05.829Z,96.97
2018-01-12T02:21:33.288Z,96.03
2018-01-12T02:24:00.779Z,97.03
2018-01-12T02:26:28.260Z,110.83
2018-01-12T02:28:56.555Z,116.17
2018-01-12T02:31:24.781Z,112.83
2018-01-12T02:33:52.268Z,122.40
2018-01-12T02:36:19.762Z,116.47
2018-01-12T02:38:47.244Z,107.87
2018-01-12T02:41:14.730Z,109.23
2018-01-12T02:43:42.216Z,113.83
2018-01-12T02:46:10.469Z,111.20
2018-01-12T02:48:37.936Z,102.57
2018-01-12T02:51:05.432Z,108.00
2018-01-12T02:53:32.909Z,104.73
2018-01-12T02:56:00.393Z,106.87
2018-01-12T02:58:27.872Z,111.07
2018-01-12T03:00:55.376Z,115.93
2018-01-12T03:03:22.847Z,123.73
2018-01-12T03:05:50.321Z,124.17
2018-01-12T03:08:17.800Z,118.83
2018-01-12T03:10:45.280Z,122.00
2018-01-12T03:13:13.521Z,119.97
2018-01-12T03:15:41.009Z,127.17
2018-01-12T03:18:09.265Z,115.47
2018-01-12T03:20:36.741Z,107.53
2018-01-12T03:23:04.985Z,116.17
2018-01-12T03:25:32.461Z,106.23
2018-01-12T03:27:59.944Z,103.83
2018-01-12T03:30:28.200Z,107.13
2018-01-12T03:32:55.695Z,115.83
2018-01-12T03:35:23.179Z,122.53
2018-01-12T03:37:50.679Z,112.50
2018-01-12T03:40:18.495Z,110.10
2018-01-12T03:42:45.973Z,127.70
2018-01-12T03:45:13.714Z,115.57
2018-01-12T03:47:42.190Z,119.30
2018-01-12T03:50:09.682Z,113.70
2018-01-12T03:52:37.161Z,124.53
2018-01-12T03:55:04.659Z,132.60
2018-01-12T03:57:32.165Z,136.77
2018-01-12T03:59:59.640Z,128.87
2018-01-12T04:02:27.120Z,126.13
2018-01-12T04:04:55.378Z,127.53
2018-01-12T04:07:23.090Z,120.43
2018-01-12T04:09:50.560Z,127.20
2018-01-12T04:12:18.046Z,120.43
2018-01-12T04:14:45.522Z,129.53
2018-01-12T04:17:13.769Z,128.40
2018-01-12T04:19:41.246Z,118.47
2018-01-12T04:22:08.729Z,134.27
2018-01-12T04:24:36.969Z,132.57
2018-01-12T04:27:04.453Z,135.70
2018-01-12T04:29:32.693Z,116.90
2018-01-12T04:32:00.433Z,129.53
2018-01-12T04:34:27.917Z,126.93
2018-01-12T04:36:55.390Z,129.27
2018-01-12T04:39:22.887Z,116.40
2018-01-12T04:41:50.357Z,123.43
2018-01-12T04:44:17.841Z,136.77
2018-01-12T04:46:46.082Z,126.30
2018-01-12T04:49:13.561Z,113.60
2018-01-12T04:51:41.051Z,122.23
2018-01-12T04:54:08.530Z,105.70
2018-01-12T04:56:36.010Z,110.10
2018-01-12T04:59:04.254Z,108.57
2018-01-12T05:01:31.738Z,99.73
2018-01-12T05:03:59.974Z,95.53
2018-01-12T05:06:27.466Z,104.73
2018-01-12T05:08:55.702Z,105.07
2018-01-12T05:11:23.189Z,102.77
2018-01-12T05:13:50.669Z,193.03
2018-01-12T05:16:18.925Z,202.13
2018-01-12T05:18:46.463Z,138.13
2018-01-12T05:21:13.894Z,153.57
2018-01-12T05:23:41.382Z,180.83
2018-01-12T05:26:08.858Z,155.93
2018-01-12T05:28:36.345Z,129.87
2018-01-12T05:31:03.821Z,124.43
2018-01-12T05:33:31.301Z,110.73
2018-01-12T05:35:58.778Z,103.37
2018-01-12T05:38:26.255Z,122.20
2018-01-12T05:40:53.724Z,124.23
2018-01-12T05:43:21.973Z,125.47
2018-01-12T05:45:49.453Z,126.47
2018-01-12T05:48:17.692Z,118.67
2018-01-12T05:50:45.172Z,114.17
2018-01-12T05:53:12.648Z,112.47
2018-01-12T05:55:40.897Z,119.80
2018-01-12T05:58:08.383Z,193.43
2018-01-12T06:00:36.905Z,243.30
2018-01-12T06:03:16.039Z,404.37
2018-01-12T06:05:55.386Z,428.93
2018-01-12T06:08:23.137Z,362.43
2018-01-12T06:10:50.639Z,481.57
2018-01-12T06:13:18.116Z,585.20
2018-01-12T06:15:46.361Z,672.43
2018-01-12T06:18:13.836Z,246.70
2018-01-12T06:20:41.311Z,476.33
2018-01-12T06:23:09.560Z,450.90
2018-01-12T06:25:37.042Z,546.57
2018-01-12T06:28:05.296Z,433.27
2018-01-12T06:30:32.769Z,345.40
2018-01-12T06:33:00.251Z,457.13
2018-01-12T06:35:28.503Z,551.03
2018-01-12T06:37:55.989Z,550.53
2018-01-12T06:40:23.462Z,536.70
2018-01-12T06:42:50.963Z,650.43
2018-01-12T06:45:18.444Z,507.97
2018-01-12T06:47:46.681Z,641.30
2018-01-12T06:50:14.156Z,489.50
2018-01-12T06:52:41.889Z,605.53
2018-01-12T06:55:09.369Z,703.80
2018-01-12T06:57:36.845Z,610.87
2018-01-12T07:00:04.337Z,702.07
2018-01-12T07:02:31.823Z,560.93
2018-01-12T07:04:59.309Z,526.30
2018-01-12T07:07:26.784Z,573.50
2018-01-12T07:09:54.273Z,549.23
2018-01-12T07:12:21.765Z,479.27
2018-01-12T07:14:49.246Z,347.20
2018-01-12T07:17:16.733Z,334.43
2018-01-12T07:19:44.988Z,363.60
2018-01-12T07:22:22.761Z,435.27
2018-01-12T07:24:50.232Z,356.73
2018-01-12T07:27:17.735Z,353.47
2018-01-12T07:32:46.853Z,311.73
2018-01-12T07:35:15.092Z,352.87
2018-01-12T07:37:43.165Z,370.87
2018-01-12T07:40:10.636Z,432.37
2018-01-12T07:42:38.125Z,325.53
2018-01-12T07:45:05.598Z,350.47
2018-01-12T07:47:33.081Z,338.83
2018-01-12T07:50:00.552Z,306.53
2018-01-12T07:52:28.029Z,387.45
2018-01-12T07:54:55.508Z,362.50
2018-01-12T07:57:23.745Z,448.77
2018-01-12T07:59:51.243Z,186.80
2018-01-12T08:02:24.437Z,254.73
2018-01-12T08:04:52.682Z,217.70
2018-01-12T08:07:20.152Z,385.60
2018-01-12T08:09:47.632Z,196.83
2018-01-12T08:12:15.878Z,518.05
2018-01-12T08:14:43.373Z,396.53
2018-01-12T08:17:10.859Z,353.73
2018-01-12T08:19:38.378Z,209.33
2018-01-12T08:22:06.616Z,184.90
2018-01-12T08:24:34.102Z,183.03
2018-01-12T08:27:02.353Z,238.13
2018-01-12T08:29:29.848Z,238.83
2018-01-12T08:31:57.346Z,446.67
2018-01-12T08:34:24.853Z,152.83
2018-01-12T08:36:52.350Z,262.20
2018-01-12T08:39:19.825Z,171.97
2018-01-12T08:41:47.300Z,128.17
2018-01-12T08:44:14.790Z,145.47
2018-01-12T08:46:43.042Z,122.20
2018-01-12T08:49:10.508Z,156.10
2018-01-12T08:51:38.075Z,164.97
2018-01-12T08:54:05.565Z,165.67
2018-01-12T08:56:33.044Z,107.67
2018-01-12T08:59:00.537Z,109.80
2018-01-12T09:01:28.017Z,110.83
2018-01-12T09:03:55.493Z,127.50
2018-01-12T09:06:23.732Z,109.37
2018-01-12T09:08:51.218Z,118.60
2018-01-12T09:11:19.457Z,108.33
2018-01-12T09:13:53.862Z,120.07
2018-01-12T09:16:27.406Z,114.60
2018-01-12T09:19:07.512Z,106.87
2018-01-12T09:21:36.823Z,130.73
2018-01-12T09:24:16.088Z,106.80
2018-01-12T09:26:43.560Z,278.60
2018-01-12T09:29:11.812Z,117.90
2018-01-12T09:31:43.248Z,109.90
2018-01-12T09:34:22.724Z,103.83
2018-01-12T09:36:50.975Z,88.17
2018-01-12T09:39:30.450Z,86.30
2018-01-12T09:41:58.759Z,85.90
2018-01-12T09:44:26.308Z,101.13
2018-01-12T09:46:53.857Z,97.97
2018-01-12T09:49:23.061Z,99.70
2018-01-12T09:51:50.637Z,111.57
2018-01-12T09:54:18.176Z,110.97
2018-01-12T09:56:45.696Z,115.50
2018-01-12T09:59:13.218Z,110.67
2018-01-12T10:01:40.714Z,109.50
2018-01-12T10:04:08.223Z,121.90
2018-01-12T10:06:35.777Z,127.07
2018-01-12T10:09:03.296Z,115.07
2018-01-12T10:11:30.814Z,112.93
2018-01-12T10:13:58.338Z,117.67
2018-01-12T10:16:26.656Z,117.63
2018-01-12T10:18:54.421Z,135.47
2018-01-12T10:21:33.930Z,141.27
2018-01-12T10:24:02.285Z,143.00
2018-01-12T10:26:29.802Z,133.07
2018-01-12T10:29:07.004Z,140.67
2018-01-12T10:31:46.423Z,136.60
2018-01-12T10:34:19.755Z,145.90
2018-01-12T10:36:58.169Z,145.90
2018-01-12T10:39:25.672Z,140.80
2018-01-12T10:42:02.095Z,145.63
2018-01-12T10:44:29.616Z,141.37
2018-01-12T10:47:15.917Z,141.03
2018-01-12T10:49:55.302Z,125.33
2018-01-12T10:52:31.783Z,120.47
2018-01-12T10:55:00.310Z,120.33
2018-01-12T10:57:27.833Z,107.47
2018-01-12T10:59:56.159Z,109.53
2018-01-12T11:02:24.469Z,112.13
2018-01-12T11:04:51.965Z,106.23
2018-01-12T11:07:19.469Z,111.30
2018-01-12T11:09:46.977Z,111.93
2018-01-12T11:12:14.484Z,113.23
2018-01-12T11:14:42.013Z,117.20
2018-01-12T11:17:09.525Z,114.57
2018-01-12T11:19:37.037Z,129.57
2018-01-12T11:22:04.571Z,122.23
2018-01-12T11:24:32.074Z,139.17
2018-01-12T11:26:59.633Z,119.47
2018-01-12T11:29:27.144Z,129.10
2018-01-12T11:31:55.429Z,128.87
2018-01-12T11:34:23.226Z,132.87
2018-01-12T11:36:51.502Z,115.70
2018-01-12T11:39:19.018Z,112.13
2018-01-12T11:41:47.277Z,108.60
2018-01-12T11:44:14.757Z,110.60
2018-01-12T11:46:43.001Z,116.60
2018-01-12T11:49:10.481Z,121.40
2018-01-12T11:51:38.721Z,113.33
2018-01-12T11:54:06.203Z,115.57
2018-01-12T11:56:33.688Z,117.57
2018-01-12T11:59:01.987Z,118.07
2018-01-12T12:01:29.471Z,119.77
2018-01-12T12:03:56.949Z,134.83
2018-01-12T12:06:25.201Z,125.03
2018-01-12T12:12:05.731Z,138.17
2018-01-12T12:14:33.972Z,138.23
2018-01-12T12:17:01.453Z,137.37
2018-01-12T12:19:28.929Z,138.70
2018-01-12T12:21:57.555Z,137.17
2018-01-12T12:24:25.025Z,144.83
2018-01-12T12:26:52.523Z,130.07
2018-01-12T12:29:19.996Z,128.73
2018-01-12T12:31:48.245Z,136.13
2018-01-12T12:34:15.812Z,138.03
2018-01-12T12:36:43.293Z,135.83
2018-01-12T12:39:11.547Z,154.70
2018-01-12T12:41:39.025Z,153.53
2018-01-12T12:44:07.315Z,142.67
2018-01-12T12:46:34.798Z,152.80
2018-01-12T12:49:02.272Z,157.00
2018-01-12T12:51:29.795Z,153.17
2018-01-12T12:53:57.272Z,160.07
2018-01-12T12:56:24.764Z,180.83
2018-01-12T12:58:52.240Z,169.20
2018-01-12T13:01:19.709Z,185.43
2018-01-12T13:03:47.971Z,174.30
2018-01-12T13:06:15.436Z,150.10
2018-01-12T13:08:43.684Z,164.50
2018-01-12T13:11:11.160Z,169.43
2018-01-12T13:13:38.636Z,156.47
2018-01-12T13:16:06.877Z,163.07
2018-01-12T13:18:34.378Z,153.33
2018-01-12T13:21:01.875Z,173.60
2018-01-12T13:23:29.354Z,180.50
2018-01-12T13:25:56.837Z,160.17
2018-01-12T13:28:24.323Z,157.47
2018-01-12T13:30:51.823Z,160.70
2018-01-12T13:33:19.302Z,167.43
2018-01-12T13:35:46.793Z,170.20
2018-01-12T13:38:15.051Z,171.17
2018-01-12T13:40:43.305Z,159.67
2018-01-12T13:43:10.769Z,165.23
2018-01-12T13:45:38.494Z,154.83
2018-01-12T13:48:05.990Z,162.90
2018-01-12T13:50:33.465Z,163.17
2018-01-12T13:53:01.727Z,159.80
2018-01-12T13:55:29.196Z,176.93
2018-01-12T13:57:56.676Z,179.53
2018-01-12T14:00:24.917Z,177.37
2018-01-12T14:02:52.398Z,191.43
2018-01-12T14:05:20.659Z,182.23
2018-01-12T14:07:48.145Z,186.43
2018-01-12T14:10:16.389Z,173.47
2018-01-12T14:12:43.864Z,189.10
2018-01-12T14:15:11.362Z,185.47
2018-01-12T14:17:38.836Z,182.90
2018-01-12T14:20:06.313Z,181.97
2018-01-12T14:22:33.803Z,169.67
2018-01-12T14:25:02.057Z,186.90
2018-01-12T14:27:29.537Z,185.13
2018-01-12T14:29:57.785Z,190.13
2018-01-12T14:32:25.261Z,175.93
2018-01-12T14:34:52.737Z,181.20
2018-01-12T14:37:20.985Z,166.13
2018-01-12T14:39:48.460Z,171.93
2018-01-12T14:42:15.957Z,187.53
2018-01-12T14:44:43.435Z,172.40
2018-01-12T14:47:10.934Z,160.80
2018-01-12T14:49:38.419Z,172.10
2018-01-12T14:52:05.917Z,334.27
2018-01-12T14:54:33.393Z,427.37
2018-01-12T14:57:00.874Z,186.33
2018-01-12T14:59:29.120Z,178.60
2018-01-12T15:01:56.604Z,177.23
2018-01-12T15:04:24.897Z,165.30
2018-01-12T15:06:53.136Z,155.33
2018-01-12T15:09:20.621Z,163.70
2018-01-12T15:11:48.862Z,167.90
2018-01-12T15:14:16.605Z,159.17
2018-01-12T15:16:44.092Z,160.47
2018-01-12T15:19:11.572Z,165.97
2018-01-12T15:21:39.062Z,163.13
2018-01-12T15:24:06.536Z,170.17
2018-01-12T15:26:34.029Z,171.97
2018-01-12T15:29:01.505Z,182.60
2018-01-12T15:31:28.990Z,196.27
2018-01-12T15:33:56.465Z,180.83
2018-01-12T15:36:23.947Z,171.77
2018-01-12T15:38:51.427Z,184.93
2018-01-12T15:41:18.896Z,191.50
2018-01-12T15:43:46.380Z,203.33
2018-01-12T15:46:13.854Z,201.23
2018-01-12T15:48:41.632Z,205.33
2018-01-12T15:51:09.114Z,199.50
2018-01-12T15:53:36.609Z,188.00
2018-01-12T15:56:04.848Z,193.87
2018-01-12T15:58:32.324Z,220.97
2018-01-12T16:00:59.804Z,224.57
2018-01-12T16:03:28.046Z,202.70
2018-01-12T16:05:55.536Z,212.53
2018-01-12T16:08:23.772Z,211.27
2018-01-12T16:10:51.260Z,188.00
2018-01-12T16:13:18.803Z,213.60
2018-01-12T16:15:46.253Z,201.87
2018-01-12T16:18:13.725Z,208.63
2018-01-12T16:20:41.248Z,207.10
2018-01-12T16:23:08.723Z,204.40
2018-01-12T16:25:36.188Z,181.53
2018-01-12T16:28:03.682Z,189.23
2018-01-12T16:30:31.917Z,206.70
2018-01-12T16:32:59.664Z,194.40
2018-01-12T16:35:27.132Z,202.37
2018-01-12T16:37:54.662Z,209.40
2018-01-12T16:40:22.136Z,207.07
2018-01-12T16:42:49.609Z,209.60
2018-01-12T16:45:17.094Z,226.43
2018-01-12T16:47:44.564Z,234.83
2018-01-12T16:50:12.049Z,221.90
2018-01-12T16:52:39.517Z,227.40
2018-01-12T16:55:06.997Z,231.47
2018-01-12T16:57:34.464Z,215.50
2018-01-12T17:00:01.953Z,218.47
2018-01-12T17:02:29.425Z,211.93
2018-01-12T17:04:57.672Z,223.03
2018-01-12T17:07:25.403Z,181.17
2018-01-12T17:09:52.918Z,193.30
2018-01-12T17:12:21.157Z,246.53
2018-01-12T17:14:48.646Z,187.77
2018-01-12T17:17:16.120Z,192.47
2018-01-12T17:19:44.361Z,174.03
2018-01-12T17:22:11.845Z,174.30
2018-01-12T17:24:40.091Z,152.53
2018-01-12T17:27:07.584Z,175.77
2018-01-12T17:29:35.829Z,159.33
2018-01-12T17:32:03.300Z,188.17
2018-01-12T17:34:30.781Z,172.33
2018-01-12T17:36:59.020Z,152.37
2018-01-12T17:45:14.301Z,175.57
2018-01-12T17:47:41.789Z,164.57
2018-01-12T17:50:09.264Z,173.00
2018-01-12T17:52:36.989Z,181.67
2018-01-12T17:55:04.487Z,175.23
2018-01-12T17:57:31.957Z,175.73
2018-01-12T17:59:59.455Z,163.63
2018-01-12T18:02:26.947Z,155.77
2018-01-12T18:04:54.429Z,167.53
2018-01-12T18:07:21.909Z,169.87
2018-01-12T18:09:50.158Z,162.93
2018-01-12T18:12:17.629Z,174.57
2018-01-12T18:14:45.886Z,155.80
2018-01-12T18:17:13.371Z,158.97
2018-01-12T18:19:41.614Z,146.07
2018-01-12T18:22:09.093Z,175.87
2018-01-12T18:24:36.561Z,174.40
2018-01-12T18:27:04.821Z,197.73
2018-01-12T18:29:32.306Z,190.57
2018-01-12T18:32:00.555Z,181.17
2018-01-12T18:34:28.025Z,177.57
2018-01-12T18:36:55.513Z,174.27
2018-01-12T18:39:23.015Z,161.50
2018-01-12T18:41:50.515Z,177.50
2018-01-12T18:44:18.951Z,186.80
2018-01-12T18:46:46.448Z,179.23
2018-01-12T18:49:14.776Z,187.87
2018-01-12T18:51:42.244Z,179.57
2018-01-12T18:54:09.730Z,178.37
2018-01-12T18:56:37.201Z,188.53
2018-01-12T18:59:05.449Z,181.33
2018-01-12T19:01:32.920Z,200.87
2018-01-12T19:04:00.419Z,174.83
2018-01-12T19:06:27.893Z,186.10
2018-01-12T19:08:55.758Z,190.43
2018-01-12T19:11:23.507Z,175.13
2018-01-12T19:13:51.033Z,177.80
2018-01-12T19:16:18.508Z,175.53
2018-01-12T19:18:46.760Z,182.97
2018-01-12T19:21:14.237Z,154.07
2018-01-12T19:23:42.487Z,185.97
2018-01-12T19:26:09.969Z,184.97
2018-01-12T19:28:38.213Z,192.93
2018-01-12T19:31:05.743Z,189.90
2018-01-12T19:33:33.227Z,172.60
2018-01-12T19:36:00.717Z,164.93
2018-01-12T19:38:28.186Z,175.07
2018-01-12T19:40:55.688Z,182.13
2018-01-12T19:43:23.198Z,175.90
2018-01-12T19:45:51.444Z,183.67
2018-01-12T19:48:18.917Z,184.60
2018-01-12T19:50:46.420Z,167.03
2018-01-12T19:53:13.897Z,173.67
2018-01-12T19:55:41.372Z,182.40
2018-01-12T19:58:08.854Z,175.73
2018-01-12T20:00:36.327Z,183.20
2018-01-12T20:03:04.574Z,177.03
2018-01-12T20:05:32.045Z,173.63
2018-01-12T20:07:59.562Z,166.97
2018-01-12T20:10:27.025Z,171.60
2018-01-12T20:12:54.512Z,192.17
2018-01-12T20:15:21.999Z,162.30
2018-01-12T20:17:50.259Z,190.03
2018-01-12T20:20:17.733Z,157.10
2018-01-12T20:22:45.981Z,168.20
2018-01-12T20:25:13.513Z,218.20
2018-01-12T20:27:41.000Z,155.37
2018-01-12T20:30:08.491Z,156.20
2018-01-12T20:32:36.773Z,158.87
2018-01-12T20:35:05.031Z,145.00
2018-01-12T20:37:32.504Z,152.33
2018-01-12T20:40:00.744Z,160.27
2018-01-12T20:42:28.217Z,143.60
2018-01-12T20:44:55.701Z,155.27
2018-01-12T20:47:23.941Z,167.07
2018-01-12T20:49:51.438Z,142.03
2018-01-12T20:52:19.689Z,133.70
2018-01-12T20:54:47.169Z,128.47
2018-01-12T20:57:15.409Z,131.83
2018-01-12T20:59:42.892Z,118.37
2018-01-12T21:02:11.137Z,110.90
2018-01-12T21:04:38.676Z,114.03
2018-01-12T21:07:06.150Z,107.73
2018-01-12T21:09:33.626Z,127.47
2018-01-12T21:12:01.121Z,107.47
2018-01-12T21:14:28.594Z,108.20
2018-01-12T21:16:56.394Z,122.87
2018-01-12T21:19:23.869Z,128.27
2018-01-12T21:21:51.354Z,111.77
2018-01-12T21:24:19.636Z,125.63
2018-01-12T21:26:47.878Z,132.10
2018-01-12T21:29:15.357Z,121.87
2018-01-12T21:31:43.648Z,122.47
2018-01-12T21:34:12.108Z,135.80
2018-01-12T21:36:39.624Z,125.97
2018-01-12T21:39:07.166Z,108.77
2018-01-12T21:41:34.636Z,142.20
2018-01-12T21:44:02.162Z,115.47
2018-01-12T21:46:29.657Z,136.60
2018-01-12T21:48:57.416Z,136.80
2018-01-12T21:51:25.186Z,121.87
2018-01-12T21:53:52.657Z,105.83
2018-01-12T21:56:20.137Z,124.37
2018-01-12T21:58:47.613Z,130.83
2018-01-12T22:01:15.093Z,123.43
2018-01-12T22:03:42.611Z,119.53
2018-01-12T22:06:10.093Z,124.97
2018-01-12T22:08:38.397Z,117.03
2018-01-12T22:11:05.921Z,134.50
2018-01-12T22:13:33.403Z,131.33
2018-01-12T22:16:01.686Z,136.47
2018-01-12T22:18:29.197Z,142.20
2018-01-12T22:20:56.669Z,154.40
2018-01-12T22:23:24.149Z,149.60
2018-01-12T22:25:52.386Z,114.00
2018-01-12T22:28:19.861Z,115.80
2018-01-12T22:30:47.343Z,118.73
2018-01-12T22:33:15.593Z,116.97
2018-01-12T22:35:43.107Z,112.07
2018-01-12T22:38:10.568Z,111.27
2018-01-12T22:40:38.068Z,115.93
2018-01-12T22:43:05.541Z,120.90
2018-01-12T22:45:33.797Z,141.10
2018-01-12T22:48:01.272Z,128.20
2018-01-12T22:50:28.797Z,131.20
2018-01-12T22:52:56.309Z,121.10
2018-01-12T22:55:24.588Z,126.70
2018-01-12T22:57:52.820Z,119.70
2018-01-12T23:00:20.566Z,115.13
2018-01-12T23:02:48.051Z,108.73
2018-01-12T23:05:15.524Z,100.57
2018-01-12T23:07:43.589Z,114.43
2018-01-12T23:10:11.112Z,111.20
2018-01-12T23:12:38.596Z,99.30
2018-01-12T23:15:06.069Z,90.00
2018-01-12T23:17:33.609Z,116.70
2018-01-12T23:20:01.127Z,113.97
2018-01-12T23:22:28.632Z,105.80
2018-01-12T23:24:56.092Z,115.20
2018-01-12T23:27:23.588Z,141.30
2018-01-12T23:29:51.824Z,154.37
2018-01-12T23:32:19.297Z,160.37
2018-01-12T23:34:46.779Z,136.33
2018-01-12T23:37:14.323Z,136.40
2018-01-12T23:39:41.800Z,122.50
2018-01-12T23:42:10.056Z,135.63
2018-01-12T23:44:37.570Z,138.90
2018-01-12T23:47:05.041Z,164.00
2018-01-12T23:49:33.289Z,149.60
2018-01-12T23:52:00.756Z,162.73
2018-01-12T23:54:28.287Z,150.93
2018-01-12T23:56:56.577Z,161.70
2018-01-12T23:59:24.053Z,174.90
